sensor_id;sensor_type;location;lat;lon;timestamp;temperature;humidity
55634;DHT22;41504;53.162;6.788;2022-08-25T00:02:06;22.40;67.80
55634;DHT22;41504;53.162;6.788;2022-08-25T00:04:33;22.40;67.50
55634;DHT22;41504;53.162;6.788;2022-08-25T00:07:03;22.30;67.80
55634;DHT22;41504;53.162;6.788;2022-08-25T00:09:34;22.30;67.70
55634;DHT22;41504;53.162;6.788;2022-08-25T00:12:01;22.30;67.80
55634;DHT22;41504;53.162;6.788;2022-08-25T00:14:33;22.20;67.70
55634;DHT22;41504;53.162;6.788;2022-08-25T00:17:00;22.20;67.80
55634;DHT22;41504;53.162;6.788;2022-08-25T00:19:30;22.20;67.70
55634;DHT22;41504;53.162;6.788;2022-08-25T00:21:57;22.20;67.90
55634;DHT22;41504;53.162;6.788;2022-08-25T00:24:23;22.20;67.60
55634;DHT22;41504;53.162;6.788;2022-08-25T00:26:53;22.10;67.70
55634;DHT22;41504;53.162;6.788;2022-08-25T00:29:20;22.10;67.60
55634;DHT22;41504;53.162;6.788;2022-08-25T00:31:46;22.10;67.70
55634;DHT22;41504;53.162;6.788;2022-08-25T00:34:16;22.00;67.70
55634;DHT22;41504;53.162;6.788;2022-08-25T00:36:43;22.00;67.80
55634;DHT22;41504;53.162;6.788;2022-08-25T00:39:10;22.00;67.90
55634;DHT22;41504;53.162;6.788;2022-08-25T00:41:37;22.00;67.60
55634;DHT22;41504;53.162;6.788;2022-08-25T00:44:06;21.90;67.60
55634;DHT22;41504;53.162;6.788;2022-08-25T00:46:38;21.90;67.30
55634;DHT22;41504;53.162;6.788;2022-08-25T00:49:24;21.90;67.30
55634;DHT22;41504;53.162;6.788;2022-08-25T00:51:59;21.90;67.30
55634;DHT22;41504;53.162;6.788;2022-08-25T00:54:53;21.90;67.10
55634;DHT22;41504;53.162;6.788;2022-08-25T00:57:27;21.80;67.10
55634;DHT22;41504;53.162;6.788;2022-08-25T00:59:57;21.80;67.00
55634;DHT22;41504;53.162;6.788;2022-08-25T01:02:22;21.80;67.20
55634;DHT22;41504;53.162;6.788;2022-08-25T01:04:48;21.70;67.00
55634;DHT22;41504;53.162;6.788;2022-08-25T01:07:16;21.70;67.10
55634;DHT22;41504;53.162;6.788;2022-08-25T01:09:44;21.70;67.40
55634;DHT22;41504;53.162;6.788;2022-08-25T01:12:10;21.60;67.30
55634;DHT22;41504;53.162;6.788;2022-08-25T01:14:36;21.60;67.20
55634;DHT22;41504;53.162;6.788;2022-08-25T01:17:02;21.60;67.10
55634;DHT22;41504;53.162;6.788;2022-08-25T01:19:29;21.60;67.10
55634;DHT22;41504;53.162;6.788;2022-08-25T01:21:58;21.60;67.30
55634;DHT22;41504;53.162;6.788;2022-08-25T01:27:06;21.60;66.80
55634;DHT22;41504;53.162;6.788;2022-08-25T01:29:32;21.60;67.20
55634;DHT22;41504;53.162;6.788;2022-08-25T01:32:01;21.50;67.30
55634;DHT22;41504;53.162;6.788;2022-08-25T01:34:33;21.50;66.80
55634;DHT22;41504;53.162;6.788;2022-08-25T01:37:00;21.50;66.90
55634;DHT22;41504;53.162;6.788;2022-08-25T01:39:28;21.50;67.10
55634;DHT22;41504;53.162;6.788;2022-08-25T01:44:29;21.50;67.10
55634;DHT22;41504;53.162;6.788;2022-08-25T01:46:56;21.40;67.10
55634;DHT22;41504;53.162;6.788;2022-08-25T01:49:22;21.40;67.10
55634;DHT22;41504;53.162;6.788;2022-08-25T01:52:37;21.40;66.80
55634;DHT22;41504;53.162;6.788;2022-08-25T01:54:37;21.40;66.70
55634;DHT22;41504;53.162;6.788;2022-08-25T01:57:04;21.30;66.70
55634;DHT22;41504;53.162;6.788;2022-08-25T01:59:29;21.30;66.40
55634;DHT22;41504;53.162;6.788;2022-08-25T02:01:55;21.30;66.30
55634;DHT22;41504;53.162;6.788;2022-08-25T02:04:21;21.30;66.20
55634;DHT22;41504;53.162;6.788;2022-08-25T02:06:47;21.30;66.10
55634;DHT22;41504;53.162;6.788;2022-08-25T02:09:15;21.30;66.30
55634;DHT22;41504;53.162;6.788;2022-08-25T02:11:43;21.30;66.30
55634;DHT22;41504;53.162;6.788;2022-08-25T02:14:11;21.20;66.30
55634;DHT22;41504;53.162;6.788;2022-08-25T02:16:39;21.20;66.40
55634;DHT22;41504;53.162;6.788;2022-08-25T02:19:12;21.20;66.30
55634;DHT22;41504;53.162;6.788;2022-08-25T02:22:20;21.20;66.10
55634;DHT22;41504;53.162;6.788;2022-08-25T02:24:58;21.10;65.90
55634;DHT22;41504;53.162;6.788;2022-08-25T02:27:24;21.10;66.10
55634;DHT22;41504;53.162;6.788;2022-08-25T02:29:50;21.10;66.20
55634;DHT22;41504;53.162;6.788;2022-08-25T02:32:17;21.10;66.10
55634;DHT22;41504;53.162;6.788;2022-08-25T02:34:43;21.10;66.20
55634;DHT22;41504;53.162;6.788;2022-08-25T02:37:09;21.10;66.20
55634;DHT22;41504;53.162;6.788;2022-08-25T02:39:34;20.90;66.00
55634;DHT22;41504;53.162;6.788;2022-08-25T02:42:01;21.00;66.10
55634;DHT22;41504;53.162;6.788;2022-08-25T02:44:27;21.00;65.90
55634;DHT22;41504;53.162;6.788;2022-08-25T02:46:52;20.90;65.90
55634;DHT22;41504;53.162;6.788;2022-08-25T02:49:18;20.90;66.00
55634;DHT22;41504;53.162;6.788;2022-08-25T02:51:44;20.80;66.00
55634;DHT22;41504;53.162;6.788;2022-08-25T02:54:10;20.80;66.20
55634;DHT22;41504;53.162;6.788;2022-08-25T02:56:35;20.80;66.10
55634;DHT22;41504;53.162;6.788;2022-08-25T02:59:01;20.70;66.10
55634;DHT22;41504;53.162;6.788;2022-08-25T03:01:27;20.70;66.10
55634;DHT22;41504;53.162;6.788;2022-08-25T03:03:53;20.70;66.40
55634;DHT22;41504;53.162;6.788;2022-08-25T03:06:21;20.70;66.30
55634;DHT22;41504;53.162;6.788;2022-08-25T03:08:47;20.70;66.30
55634;DHT22;41504;53.162;6.788;2022-08-25T03:11:13;20.60;66.30
55634;DHT22;41504;53.162;6.788;2022-08-25T03:13:40;20.60;66.30
55634;DHT22;41504;53.162;6.788;2022-08-25T03:16:06;20.60;66.10
55634;DHT22;41504;53.162;6.788;2022-08-25T03:18:33;20.60;66.20
55634;DHT22;41504;53.162;6.788;2022-08-25T03:20:59;20.50;66.10
55634;DHT22;41504;53.162;6.788;2022-08-25T03:23:25;20.50;66.20
55634;DHT22;41504;53.162;6.788;2022-08-25T03:25:55;20.50;66.30
55634;DHT22;41504;53.162;6.788;2022-08-25T03:28:40;20.40;66.50
55634;DHT22;41504;53.162;6.788;2022-08-25T03:31:06;20.40;66.40
55634;DHT22;41504;53.162;6.788;2022-08-25T03:33:33;20.40;66.50
55634;DHT22;41504;53.162;6.788;2022-08-25T03:35:59;20.40;66.50
55634;DHT22;41504;53.162;6.788;2022-08-25T03:38:25;20.40;66.70
55634;DHT22;41504;53.162;6.788;2022-08-25T03:40:52;20.40;66.70
55634;DHT22;41504;53.162;6.788;2022-08-25T03:43:18;20.40;66.60
55634;DHT22;41504;53.162;6.788;2022-08-25T03:45:45;20.30;66.70
55634;DHT22;41504;53.162;6.788;2022-08-25T03:48:12;20.30;66.80
55634;DHT22;41504;53.162;6.788;2022-08-25T03:50:50;20.30;66.90
55634;DHT22;41504;53.162;6.788;2022-08-25T03:53:16;20.30;66.90
55634;DHT22;41504;53.162;6.788;2022-08-25T03:55:42;20.20;67.00
55634;DHT22;41504;53.162;6.788;2022-08-25T03:58:08;20.20;67.00
55634;DHT22;41504;53.162;6.788;2022-08-25T04:00:34;20.20;66.90
55634;DHT22;41504;53.162;6.788;2022-08-25T04:02:59;20.20;67.00
55634;DHT22;41504;53.162;6.788;2022-08-25T04:05:25;20.10;67.10
55634;DHT22;41504;53.162;6.788;2022-08-25T04:07:51;20.10;67.10
55634;DHT22;41504;53.162;6.788;2022-08-25T04:10:17;20.10;67.20
55634;DHT22;41504;53.162;6.788;2022-08-25T04:12:43;20.00;67.10
55634;DHT22;41504;53.162;6.788;2022-08-25T04:15:09;20.00;67.30
55634;DHT22;41504;53.162;6.788;2022-08-25T04:17:38;20.00;67.40
55634;DHT22;41504;53.162;6.788;2022-08-25T04:20:06;20.00;67.30
55634;DHT22;41504;53.162;6.788;2022-08-25T04:22:33;20.00;67.30
55634;DHT22;41504;53.162;6.788;2022-08-25T04:24:59;20.00;67.30
55634;DHT22;41504;53.162;6.788;2022-08-25T04:27:24;19.90;67.40
55634;DHT22;41504;53.162;6.788;2022-08-25T04:29:50;19.90;67.40
55634;DHT22;41504;53.162;6.788;2022-08-25T19:15:52;28.20;51.70
55634;DHT22;41504;53.162;6.788;2022-08-25T19:18:19;27.80;50.70
55634;DHT22;41504;53.162;6.788;2022-08-25T19:20:45;27.80;51.60
55634;DHT22;41504;53.162;6.788;2022-08-25T19:23:10;27.70;52.00
55634;DHT22;41504;53.162;6.788;2022-08-25T19:25:38;27.70;52.70
55634;DHT22;41504;53.162;6.788;2022-08-25T19:28:06;27.60;53.10
55634;DHT22;41504;53.162;6.788;2022-08-25T19:30:33;27.60;53.40
55634;DHT22;41504;53.162;6.788;2022-08-25T19:33:00;27.60;53.60
55634;DHT22;41504;53.162;6.788;2022-08-25T19:35:43;27.50;53.80
55634;DHT22;41504;53.162;6.788;2022-08-25T19:38:13;27.50;53.70
55634;DHT22;41504;53.162;6.788;2022-08-25T19:40:39;27.50;54.40
55634;DHT22;41504;53.162;6.788;2022-08-25T19:43:05;27.40;54.40
55634;DHT22;41504;53.162;6.788;2022-08-25T19:45:34;27.40;54.80
55634;DHT22;41504;53.162;6.788;2022-08-25T19:48:00;27.40;55.00
55634;DHT22;41504;53.162;6.788;2022-08-25T19:50:26;27.30;55.10
55634;DHT22;41504;53.162;6.788;2022-08-25T19:52:52;27.20;55.20
55634;DHT22;41504;53.162;6.788;2022-08-25T19:55:18;27.20;55.70
55634;DHT22;41504;53.162;6.788;2022-08-25T19:57:44;27.20;55.40
55634;DHT22;41504;53.162;6.788;2022-08-25T20:00:18;27.20;55.00
55634;DHT22;41504;53.162;6.788;2022-08-25T20:02:44;27.10;55.20
55634;DHT22;41504;53.162;6.788;2022-08-25T20:05:10;27.10;55.40
55634;DHT22;41504;53.162;6.788;2022-08-25T20:07:37;27.00;55.30
55634;DHT22;41504;53.162;6.788;2022-08-25T20:10:05;26.90;55.40
55634;DHT22;41504;53.162;6.788;2022-08-25T20:12:32;26.90;55.70
55634;DHT22;41504;53.162;6.788;2022-08-25T20:15:00;26.90;56.30
55634;DHT22;41504;53.162;6.788;2022-08-25T20:17:29;26.80;55.90
55634;DHT22;41504;53.162;6.788;2022-08-25T20:19:58;26.80;56.10
55634;DHT22;41504;53.162;6.788;2022-08-25T20:22:28;26.80;56.20
55634;DHT22;41504;53.162;6.788;2022-08-25T20:24:58;26.70;56.50
55634;DHT22;41504;53.162;6.788;2022-08-25T20:27:39;26.70;56.40
55634;DHT22;41504;53.162;6.788;2022-08-25T20:30:10;26.60;56.50
55634;DHT22;41504;53.162;6.788;2022-08-25T20:32:36;26.50;56.50
55634;DHT22;41504;53.162;6.788;2022-08-25T20:35:04;26.50;56.80
55634;DHT22;41504;53.162;6.788;2022-08-25T20:37:31;26.40;56.90
55634;DHT22;41504;53.162;6.788;2022-08-25T20:39:57;26.40;57.20
55634;DHT22;41504;53.162;6.788;2022-08-25T20:42:22;26.30;57.20
55634;DHT22;41504;53.162;6.788;2022-08-25T20:44:48;26.30;57.30
55634;DHT22;41504;53.162;6.788;2022-08-25T20:47:14;26.20;57.40
55634;DHT22;41504;53.162;6.788;2022-08-25T20:49:40;26.20;57.80
55634;DHT22;41504;53.162;6.788;2022-08-25T20:52:09;26.10;57.90
55634;DHT22;41504;53.162;6.788;2022-08-25T20:54:35;26.10;58.10
55634;DHT22;41504;53.162;6.788;2022-08-25T20:57:01;26.10;58.10
55634;DHT22;41504;53.162;6.788;2022-08-25T20:59:27;26.10;58.00
55634;DHT22;41504;53.162;6.788;2022-08-25T21:01:54;26.00;58.70
55634;DHT22;41504;53.162;6.788;2022-08-25T21:04:22;26.00;58.10
55634;DHT22;41504;53.162;6.788;2022-08-25T21:06:49;25.90;58.30
55634;DHT22;41504;53.162;6.788;2022-08-25T21:09:18;25.90;58.50
55634;DHT22;41504;53.162;6.788;2022-08-25T21:11:45;25.90;58.50
55634;DHT22;41504;53.162;6.788;2022-08-25T21:14:12;25.80;58.80
55634;DHT22;41504;53.162;6.788;2022-08-25T21:16:39;25.80;58.80
55634;DHT22;41504;53.162;6.788;2022-08-25T21:19:06;25.80;58.90
55634;DHT22;41504;53.162;6.788;2022-08-25T21:21:32;25.70;58.90
55634;DHT22;41504;53.162;6.788;2022-08-25T21:23:58;25.70;59.20
55634;DHT22;41504;53.162;6.788;2022-08-25T21:26:29;25.70;59.10
55634;DHT22;41504;53.162;6.788;2022-08-25T21:29:00;25.60;59.20
55634;DHT22;41504;53.162;6.788;2022-08-25T21:31:27;25.60;59.40
55634;DHT22;41504;53.162;6.788;2022-08-25T21:33:55;25.60;59.40
55634;DHT22;41504;53.162;6.788;2022-08-25T21:36:23;25.60;59.60
55634;DHT22;41504;53.162;6.788;2022-08-25T21:38:50;25.50;59.60
55634;DHT22;41504;53.162;6.788;2022-08-25T21:41:19;25.50;59.80
55634;DHT22;41504;53.162;6.788;2022-08-25T21:43:48;25.40;60.00
55634;DHT22;41504;53.162;6.788;2022-08-25T21:46:16;25.40;60.10
55634;DHT22;41504;53.162;6.788;2022-08-25T21:48:43;25.40;60.30
55634;DHT22;41504;53.162;6.788;2022-08-25T21:51:14;25.30;60.50
55634;DHT22;41504;53.162;6.788;2022-08-25T21:53:41;25.30;60.60
55634;DHT22;41504;53.162;6.788;2022-08-25T21:56:09;25.30;60.70
55634;DHT22;41504;53.162;6.788;2022-08-25T21:58:37;25.20;60.50
55634;DHT22;41504;53.162;6.788;2022-08-25T22:01:07;25.20;60.90
55634;DHT22;41504;53.162;6.788;2022-08-25T22:03:33;25.20;61.20
55634;DHT22;41504;53.162;6.788;2022-08-25T22:06:04;25.10;61.10
55634;DHT22;41504;53.162;6.788;2022-08-25T22:08:31;25.10;61.00
55634;DHT22;41504;53.162;6.788;2022-08-25T22:11:00;25.00;61.10
55634;DHT22;41504;53.162;6.788;2022-08-25T22:13:27;25.00;61.30
55634;DHT22;41504;53.162;6.788;2022-08-25T22:15:53;25.00;61.50
55634;DHT22;41504;53.162;6.788;2022-08-25T22:18:20;25.00;61.50
55634;DHT22;41504;53.162;6.788;2022-08-25T22:20:46;24.90;61.40
55634;DHT22;41504;53.162;6.788;2022-08-25T22:23:13;24.90;61.70
55634;DHT22;41504;53.162;6.788;2022-08-25T22:25:39;24.80;61.60
55634;DHT22;41504;53.162;6.788;2022-08-25T22:28:05;24.80;61.90
55634;DHT22;41504;53.162;6.788;2022-08-25T22:30:32;24.80;61.90
55634;DHT22;41504;53.162;6.788;2022-08-25T22:32:58;24.80;61.90
55634;DHT22;41504;53.162;6.788;2022-08-25T22:35:24;24.70;62.10
55634;DHT22;41504;53.162;6.788;2022-08-25T22:37:50;24.70;61.90
55634;DHT22;41504;53.162;6.788;2022-08-25T22:40:16;24.60;62.00
55634;DHT22;41504;53.162;6.788;2022-08-25T22:42:42;24.40;62.90
55634;DHT22;41504;53.162;6.788;2022-08-25T22:45:09;24.20;62.80
55634;DHT22;41504;53.162;6.788;2022-08-25T22:47:38;24.20;63.10
55634;DHT22;41504;53.162;6.788;2022-08-25T22:50:04;24.20;63.10
55634;DHT22;41504;53.162;6.788;2022-08-25T22:52:31;24.10;63.30
55634;DHT22;41504;53.162;6.788;2022-08-25T22:54:58;24.10;63.30
55634;DHT22;41504;53.162;6.788;2022-08-25T22:57:24;24.20;63.20
55634;DHT22;41504;53.162;6.788;2022-08-25T22:59:49;24.10;63.30
55634;DHT22;41504;53.162;6.788;2022-08-25T23:02:15;24.10;63.30
55634;DHT22;41504;53.162;6.788;2022-08-25T23:04:41;24.10;63.50
55634;DHT22;41504;53.162;6.788;2022-08-25T23:07:07;24.10;63.60
55634;DHT22;41504;53.162;6.788;2022-08-25T23:09:33;24.10;63.50
55634;DHT22;41504;53.162;6.788;2022-08-25T23:11:58;24.10;63.60
55634;DHT22;41504;53.162;6.788;2022-08-25T23:14:24;24.10;63.70
55634;DHT22;41504;53.162;6.788;2022-08-25T23:16:50;24.00;64.00
55634;DHT22;41504;53.162;6.788;2022-08-25T23:19:16;24.00;64.00
55634;DHT22;41504;53.162;6.788;2022-08-25T23:21:43;24.00;64.10
55634;DHT22;41504;53.162;6.788;2022-08-25T23:24:28;24.00;64.00
55634;DHT22;41504;53.162;6.788;2022-08-25T23:26:54;23.90;64.40
55634;DHT22;41504;53.162;6.788;2022-08-25T23:29:20;23.80;64.80
55634;DHT22;41504;53.162;6.788;2022-08-25T23:31:46;23.70;65.30
55634;DHT22;41504;53.162;6.788;2022-08-25T23:34:13;23.60;66.20
55634;DHT22;41504;53.162;6.788;2022-08-25T23:36:42;23.50;67.10
55634;DHT22;41504;53.162;6.788;2022-08-25T23:39:07;23.40;67.70
55634;DHT22;41504;53.162;6.788;2022-08-25T23:41:33;23.20;68.30
55634;DHT22;41504;53.162;6.788;2022-08-25T23:44:01;23.10;68.90
55634;DHT22;41504;53.162;6.788;2022-08-25T23:46:27;22.90;69.30
55634;DHT22;41504;53.162;6.788;2022-08-25T23:48:54;22.90;69.50
55634;DHT22;41504;53.162;6.788;2022-08-25T23:51:28;23.00;69.60
55634;DHT22;41504;53.162;6.788;2022-08-25T23:53:55;23.00;69.90
55634;DHT22;41504;53.162;6.788;2022-08-25T23:56:22;22.90;70.40
55634;DHT22;41504;53.162;6.788;2022-08-25T23:58:49;22.80;70.90
